Time;durP1;ratioP1;P1;durP2;ratioP2;P2;SDS_P1;SDS_P2;PMS_P1;PMS_P2;Temp;Humidity;BMP_temperature;BMP_pressure;BME280_temperature;BME280_humidity;BME280_pressure;Samples;Min_cycle;Max_cycle;Signal;HPM_P1;HPM_P2
2023/12/21 00:00:13;;;;;;;0.30;0.17;;;11.50;63.50;;;;;;5003881;28;20056;-35
2023/12/21 00:02:40;;;;;;;1.10;0.20;;;11.60;63.50;;;;;;5004681;28;20050;-36
2023/12/21 00:05:10;;;;;;;0.40;0.20;;;11.60;63.70;;;;;;5000775;28;20053;-35
2023/12/21 00:07:37;;;;;;;2.47;0.20;;;11.60;63.80;;;;;;4999721;28;20047;-36
2023/12/21 00:10:05;;;;;;;0.80;0.20;;;11.50;63.90;;;;;;5000870;28;20054;-36
2023/12/21 00:12:32;;;;;;;1.13;0.20;;;11.50;64.10;;;;;;5001285;28;20061;-37
2023/12/21 00:15:00;;;;;;;0.82;0.20;;;11.40;64.10;;;;;;5001147;28;20056;-36
2023/12/21 00:17:27;;;;;;;0.95;0.20;;;11.60;64.20;;;;;;4993766;28;20889;-36
2023/12/21 00:19:54;;;;;;;0.40;0.20;;;11.60;64.10;;;;;;4999419;28;20054;-36
2023/12/21 00:22:22;;;;;;;0.47;0.20;;;11.60;64.10;;;;;;4999685;28;20494;-36
2023/12/21 00:24:50;;;;;;;2.25;0.77;;;11.50;64.20;;;;;;5004450;28;20061;-36
2023/12/21 00:27:17;;;;;;;0.98;0.40;;;11.60;64.30;;;;;;4997797;28;20050;-36
2023/12/21 00:29:44;;;;;;;0.60;0.28;;;11.60;64.30;;;;;;4993899;28;20057;-36
2023/12/21 00:32:11;;;;;;;1.25;0.40;;;11.60;64.20;;;;;;4999574;28;20057;-36
2023/12/21 00:34:39;;;;;;;2.42;0.20;;;11.60;64.10;;;;;;4997153;28;20046;-36
2023/12/21 00:37:06;;;;;;;1.95;0.32;;;11.70;64.10;;;;;;5003028;28;20410;-35
2023/12/21 00:39:34;;;;;;;3.80;0.30;;;11.70;64.10;;;;;;4998495;28;20046;-35
2023/12/21 00:42:02;;;;;;;0.30;0.10;;;11.70;64.10;;;;;;4999886;28;20061;-35
2023/12/21 00:44:29;;;;;;;3.35;0.10;;;11.70;64.20;;;;;;4999294;28;20521;-36
2023/12/21 00:46:56;;;;;;;0.77;0.20;;;11.70;64.30;;;;;;4999893;28;20047;-36
2023/12/21 00:49:23;;;;;;;0.47;0.20;;;11.70;64.30;;;;;;5002323;28;20054;-35
2023/12/21 00:51:50;;;;;;;0.28;0.10;;;11.70;64.30;;;;;;4999149;28;20083;-35
2023/12/21 00:54:18;;;;;;;5.43;0.25;;;11.70;64.30;;;;;;5003404;28;20058;-37
2023/12/21 00:56:47;;;;;;;0.65;0.10;;;11.80;64.40;;;;;;4998982;28;20057;-36
2023/12/21 00:59:14;;;;;;;0.28;0.10;;;11.80;64.30;;;;;;5001079;28;20065;-36
2023/12/21 01:01:41;;;;;;;0.30;0.10;;;11.90;64.30;;;;;;5000002;28;20058;-37
2023/12/21 01:04:08;;;;;;;0.40;0.00;;;11.80;64.30;;;;;;5004669;28;20046;-36
2023/12/21 01:06:36;;;;;;;3.05;0.30;;;11.80;64.30;;;;;;5000462;28;20061;-37
2023/12/21 01:09:04;;;;;;;0.47;0.10;;;11.90;64.40;;;;;;5004966;28;20056;-35
2023/12/21 01:11:31;;;;;;;1.95;0.17;;;11.90;64.30;;;;;;4999942;28;20058;-36
2023/12/21 01:13:59;;;;;;;0.30;0.10;;;11.90;64.40;;;;;;5001046;28;20498;-36
2023/12/21 01:16:27;;;;;;;0.20;0.00;;;11.90;64.30;;;;;;5005843;28;20066;-36
2023/12/21 01:18:54;;;;;;;0.00;0.00;;;11.90;64.40;;;;;;5007703;28;20147;-36
2023/12/21 01:21:21;;;;;;;2.72;0.00;;;11.90;64.40;;;;;;5006657;28;20061;-36
2023/12/21 01:23:48;;;;;;;1.10;0.10;;;11.90;64.40;;;;;;5003664;28;20061;-36
2023/12/21 01:26:16;;;;;;;0.22;0.03;;;12.00;64.40;;;;;;5002167;28;20422;-36
2023/12/21 01:28:43;;;;;;;0.50;0.10;;;11.90;64.50;;;;;;5005278;28;20061;-36
2023/12/21 01:31:11;;;;;;;0.00;0.00;;;12.00;64.50;;;;;;5001556;28;20050;-36
2023/12/21 01:33:39;;;;;;;0.85;0.10;;;12.10;64.50;;;;;;5003383;28;20066;-36
2023/12/21 01:36:08;;;;;;;0.03;0.00;;;12.10;64.50;;;;;;5005718;28;20053;-36
2023/12/21 01:38:35;;;;;;;0.00;0.00;;;12.10;64.40;;;;;;5000594;28;20065;-36
2023/12/21 01:41:03;;;;;;;0.70;0.10;;;12.00;64.30;;;;;;5005312;28;20046;-36
2023/12/21 01:43:30;;;;;;;0.00;0.00;;;12.00;64.50;;;;;;5001940;28;20515;-36
2023/12/21 01:45:59;;;;;;;0.43;0.10;;;12.10;64.50;;;;;;5006707;28;20054;-36
2023/12/21 01:48:31;;;;;;;0.00;0.00;;;12.10;64.50;;;;;;5004340;28;20490;-37
2023/12/21 01:51:00;;;;;;;0.00;0.00;;;12.10;64.40;;;;;;5006311;28;20050;-37
2023/12/21 01:53:28;;;;;;;0.10;0.10;;;12.10;64.40;;;;;;5004140;28;20050;-36
2023/12/21 01:55:56;;;;;;;0.05;0.00;;;12.10;64.30;;;;;;5001421;28;20085;-38
2023/12/21 01:58:23;;;;;;;0.10;0.10;;;12.10;64.30;;;;;;5001106;28;20411;-37
2023/12/21 02:00:52;;;;;;;0.20;0.03;;;12.20;64.30;;;;;;5001846;28;20077;-36
2023/12/21 02:03:20;;;;;;;1.27;0.10;;;12.10;64.20;;;;;;5003493;28;20057;-36
2023/12/21 02:05:49;;;;;;;0.65;0.08;;;12.10;64.20;;;;;;4999586;28;20054;-35
2023/12/21 02:08:16;;;;;;;0.22;0.00;;;12.00;64.10;;;;;;4995820;28;20410;-36
2023/12/21 02:10:43;;;;;;;0.10;0.10;;;12.00;64.10;;;;;;5002179;28;20053;-36
2023/12/21 02:13:11;;;;;;;0.20;0.00;;;12.10;64.20;;;;;;4998169;28;20162;-36
2023/12/21 02:15:38;;;;;;;0.05;0.00;;;12.10;64.10;;;;;;5001453;28;20054;-36
2023/12/21 02:18:08;;;;;;;2.42;0.10;;;12.10;64.10;;;;;;5004318;28;20483;-35
2023/12/21 02:20:36;;;;;;;0.35;0.00;;;12.10;64.00;;;;;;5004884;28;20069;-37
2023/12/21 02:23:07;;;;;;;0.32;0.10;;;12.10;64.00;;;;;;5001050;28;20529;-37
2023/12/21 02:25:36;;;;;;;0.35;0.00;;;12.00;63.90;;;;;;5001029;28;20055;-36
2023/12/21 02:28:04;;;;;;;0.52;0.10;;;12.00;64.00;;;;;;5000496;28;20061;-37
2023/12/21 02:30:31;;;;;;;0.00;0.00;;;12.10;64.20;;;;;;5007602;28;20061;-36
2023/12/21 02:32:58;;;;;;;0.10;0.10;;;12.00;64.10;;;;;;5002548;28;20053;-37
2023/12/21 02:35:25;;;;;;;1.08;0.10;;;12.10;64.10;;;;;;5002636;28;20065;-35
2023/12/21 02:37:52;;;;;;;0.10;0.00;;;12.00;63.90;;;;;;5006138;28;20050;-36
2023/12/21 02:40:20;;;;;;;0.00;0.00;;;12.00;63.80;;;;;;4999000;28;20065;-36
2023/12/21 02:42:48;;;;;;;0.00;0.00;;;12.00;63.90;;;;;;5003210;28;20061;-37
2023/12/21 02:45:15;;;;;;;0.00;0.00;;;12.00;63.80;;;;;;5004891;28;20417;-36
2023/12/21 02:47:43;;;;;;;0.80;0.10;;;12.10;63.60;;;;;;4999056;28;20509;-35
2023/12/21 02:50:11;;;;;;;0.00;0.00;;;12.10;63.50;;;;;;5002451;28;20050;-36
2023/12/21 02:52:38;;;;;;;0.28;0.00;;;12.10;63.50;;;;;;5004989;28;20050;-36
2023/12/21 02:55:06;;;;;;;1.65;0.00;;;12.20;63.50;;;;;;5001222;28;20049;-36
2023/12/21 02:57:33;;;;;;;0.00;0.00;;;12.20;63.30;;;;;;5001227;28;20744;-36
2023/12/21 03:00:02;;;;;;;0.00;0.00;;;12.30;63.30;;;;;;4998865;28;20050;-36
2023/12/21 03:02:29;;;;;;;0.38;0.00;;;12.30;62.90;;;;;;5005118;28;20482;-35
2023/12/21 03:04:56;;;;;;;0.00;0.00;;;12.30;62.80;;;;;;5000326;28;20061;-36
2023/12/21 03:07:23;;;;;;;0.10;0.00;;;12.30;62.80;;;;;;4997236;28;20062;-35
2023/12/21 03:09:50;;;;;;;0.10;0.00;;;12.30;62.80;;;;;;4998315;28;20057;-36
2023/12/21 03:12:18;;;;;;;1.05;0.05;;;12.20;62.80;;;;;;5002320;28;20510;-36
2023/12/21 03:14:45;;;;;;;1.25;0.10;;;12.30;63.00;;;;;;5005043;28;20061;-36
2023/12/21 03:17:13;;;;;;;0.55;0.00;;;12.30;62.90;;;;;;5004015;28;20581;-36
2023/12/21 03:19:41;;;;;;;0.25;0.00;;;12.30;62.90;;;;;;5000661;28;20056;-37
2023/12/21 03:22:08;;;;;;;0.05;0.00;;;12.30;62.90;;;;;;5003474;28;20050;-37
2023/12/21 03:24:35;;;;;;;0.70;0.00;;;12.30;62.90;;;;;;5001320;28;20058;-36
2023/12/21 03:27:03;;;;;;;3.47;0.10;;;12.40;62.90;;;;;;4997209;28;20407;-37
2023/12/21 03:29:30;;;;;;;0.10;0.00;;;12.40;63.00;;;;;;4997881;28;20054;-36
2023/12/21 03:31:57;;;;;;;0.00;0.00;;;12.30;63.00;;;;;;5001987;28;20049;-37
2023/12/21 03:34:26;;;;;;;1.13;0.10;;;12.40;63.80;;;;;;4995479;28;20065;-37
2023/12/21 03:36:53;;;;;;;0.13;0.10;;;12.50;63.30;;;;;;5001925;28;20054;-43
2023/12/21 03:39:20;;;;;;;0.17;0.17;;;12.50;63.20;;;;;;4999535;28;20061;-49
2023/12/21 03:41:47;;;;;;;0.85;0.10;;;12.50;63.20;;;;;;5001412;28;20056;-48
2023/12/21 03:44:15;;;;;;;0.00;0.00;;;12.50;63.20;;;;;;4999508;28;20680;-51
2023/12/21 03:46:42;;;;;;;0.40;0.10;;;12.50;63.20;;;;;;5002616;28;20050;-50
2023/12/21 03:49:09;;;;;;;1.10;0.00;;;12.40;63.30;;;;;;5018390;28;20055;-48
2023/12/21 03:51:38;;;;;;;0.20;0.00;;;12.50;63.40;;;;;;5003515;28;20050;-43
2023/12/21 03:54:05;;;;;;;0.00;0.00;;;12.50;63.40;;;;;;5011127;28;20049;-50
2023/12/21 03:56:32;;;;;;;0.15;0.10;;;12.40;63.50;;;;;;5009278;28;20061;-52
2023/12/21 03:58:59;;;;;;;0.10;0.00;;;12.40;63.60;;;;;;5016346;28;20050;-49
2023/12/21 04:01:29;;;;;;;0.30;0.00;;;12.40;63.60;;;;;;5013179;28;20050;-50
2023/12/21 04:03:56;;;;;;;0.00;0.00;;;12.50;63.70;;;;;;5022219;28;20053;-51
2023/12/21 04:06:23;;;;;;;0.70;0.10;;;12.30;63.60;;;;;;5015200;28;20497;-52
2023/12/21 04:08:54;;;;;;;0.00;0.00;;;12.30;63.80;;;;;;5005387;28;20529;-49
2023/12/21 04:11:21;;;;;;;0.10;0.00;;;12.30;63.80;;;;;;5000948;28;20049;-44
2023/12/21 04:13:48;;;;;;;1.58;0.10;;;12.20;63.90;;;;;;4997507;28;20060;-49
2023/12/21 04:16:15;;;;;;;0.00;0.00;;;12.30;64.00;;;;;;5006282;28;20053;-51
2023/12/21 04:18:42;;;;;;;0.00;0.00;;;12.30;64.00;;;;;;5008711;28;20060;-51
2023/12/21 04:21:10;;;;;;;0.13;0.03;;;12.30;63.70;;;;;;5013623;28;20081;-47
2023/12/21 04:23:37;;;;;;;0.00;0.00;;;12.40;63.70;;;;;;5007993;28;20074;-50
2023/12/21 04:26:07;;;;;;;1.27;0.00;;;12.40;63.60;;;;;;5017224;28;20046;-52
2023/12/21 04:28:35;;;;;;;0.75;0.10;;;12.30;63.30;;;;;;4999356;28;20057;-51
2023/12/21 04:31:02;;;;;;;0.17;0.00;;;12.30;63.30;;;;;;5018970;28;20054;-44
2023/12/21 04:33:29;;;;;;;0.20;0.10;;;12.30;63.20;;;;;;5008841;28;20061;-48
2023/12/21 04:35:56;;;;;;;0.00;0.00;;;12.40;63.10;;;;;;5010236;28;20062;-46
2023/12/21 04:38:23;;;;;;;0.13;0.05;;;12.50;63.10;;;;;;5013333;28;20050;-46
2023/12/21 04:40:51;;;;;;;1.30;0.52;;;12.50;63.00;;;;;;5012251;28;20061;-50
2023/12/21 04:43:19;;;;;;;0.00;0.00;;;12.50;63.00;;;;;;5010258;28;20061;-51
2023/12/21 04:45:46;;;;;;;0.00;0.00;;;12.60;63.00;;;;;;5016499;28;20053;-36
2023/12/21 04:48:13;;;;;;;0.28;0.03;;;12.60;63.00;;;;;;5007287;28;20046;-36
2023/12/21 04:50:41;;;;;;;0.20;0.00;;;12.60;63.20;;;;;;5004748;28;20058;-36
2023/12/21 04:53:08;;;;;;;0.30;0.00;;;12.60;63.00;;;;;;5006392;28;20514;-36
2023/12/21 04:55:35;;;;;;;0.10;0.10;;;12.50;63.10;;;;;;5012535;28;20410;-36
2023/12/21 04:58:02;;;;;;;0.57;0.20;;;12.50;63.20;;;;;;5016765;28;20516;-36
2023/12/21 05:00:31;;;;;;;1.52;0.30;;;12.50;63.30;;;;;;5013495;28;20052;-36
2023/12/21 05:02:58;;;;;;;1.08;0.20;;;12.60;63.50;;;;;;5013133;28;20045;-36
2023/12/21 05:05:25;;;;;;;0.85;0.32;;;12.50;63.50;;;;;;5009295;28;20076;-37
2023/12/21 05:07:53;;;;;;;1.08;0.22;;;12.50;63.70;;;;;;5006874;28;20490;-36
2023/12/21 05:10:20;;;;;;;3.28;0.30;;;12.50;63.80;;;;;;5014683;28;20049;-36
2023/12/21 05:12:47;;;;;;;1.35;0.63;;;12.40;64.00;;;;;;5017365;28;20054;-37
2023/12/21 05:15:14;;;;;;;1.25;0.30;;;12.40;64.10;;;;;;5012235;28;20057;-36
2023/12/21 05:17:43;;;;;;;0.80;0.10;;;12.30;64.20;;;;;;5010594;28;20057;-36
2023/12/21 05:20:11;;;;;;;0.47;0.22;;;12.40;64.50;;;;;;5012533;28;20049;-36
2023/12/21 05:22:38;;;;;;;1.50;0.57;;;12.40;64.50;;;;;;5014567;28;20058;-36
2023/12/21 05:25:06;;;;;;;0.57;0.28;;;12.40;64.50;;;;;;5009895;28;20125;-36
2023/12/21 05:27:33;;;;;;;0.60;0.28;;;12.40;64.60;;;;;;5004946;28;20061;-36
2023/12/21 05:30:01;;;;;;;1.65;0.68;;;12.40;64.60;;;;;;5006483;28;20047;-36
2023/12/21 05:32:29;;;;;;;1.05;0.30;;;12.40;64.70;;;;;;4999721;28;20061;-37
2023/12/21 05:34:57;;;;;;;1.55;0.65;;;12.30;65.00;;;;;;5020790;28;20482;-36
2023/12/21 05:37:26;;;;;;;1.77;0.75;;;12.40;64.90;;;;;;5009873;28;20061;-36
2023/12/21 05:39:54;;;;;;;2.03;0.70;;;12.40;64.90;;;;;;5013579;28;20054;-36
2023/12/21 05:42:22;;;;;;;0.68;0.40;;;12.40;64.90;;;;;;5008849;28;20060;-37
2023/12/21 05:44:49;;;;;;;2.90;0.80;;;12.50;65.00;;;;;;5005910;28;20061;-36
2023/12/21 05:47:16;;;;;;;2.28;0.50;;;12.40;64.90;;;;;;5008082;28;20493;-36
2023/12/21 05:49:43;;;;;;;1.42;0.65;;;12.40;65.70;;;;;;5012537;28;20056;-35
2023/12/21 05:52:13;;;;;;;0.63;0.32;;;12.40;65.10;;;;;;5018197;28;20069;-36
2023/12/21 05:54:40;;;;;;;1.60;0.30;;;12.40;65.20;;;;;;5009615;28;20042;-35
2023/12/21 05:57:07;;;;;;;1.15;0.30;;;12.30;65.20;;;;;;4999465;28;20101;-36
2023/12/21 05:59:36;;;;;;;2.22;0.43;;;12.30;65.40;;;;;;5008835;28;20061;-36
2023/12/21 06:02:03;;;;;;;0.98;0.30;;;12.30;65.60;;;;;;5012179;28;20056;-37
2023/12/21 06:04:31;;;;;;;0.82;0.30;;;12.30;65.70;;;;;;5013450;28;20418;-36
2023/12/21 06:06:58;;;;;;;2.10;0.20;;;12.30;65.80;;;;;;5004306;28;20054;-37
2023/12/21 06:09:27;;;;;;;1.40;0.30;;;12.30;66.00;;;;;;4963885;28;20406;-36
2023/12/21 06:11:54;;;;;;;0.73;0.25;;;12.30;66.00;;;;;;5004370;28;20057;-35
2023/12/21 06:14:22;;;;;;;2.60;1.00;;;12.30;66.10;;;;;;5002954;28;20062;-36
2023/12/21 06:16:49;;;;;;;1.88;0.77;;;12.30;66.20;;;;;;5008059;28;20479;-36
2023/12/21 06:19:16;;;;;;;1.67;0.40;;;12.30;66.20;;;;;;5010988;28;20057;-36
2023/12/21 06:21:43;;;;;;;1.42;0.45;;;12.30;66.10;;;;;;5010505;28;20509;-36
2023/12/21 06:24:11;;;;;;;2.92;0.73;;;12.30;66.20;;;;;;5002364;28;20046;-36
2023/12/21 06:26:41;;;;;;;2.38;0.43;;;12.30;66.10;;;;;;5010807;28;20058;-36
2023/12/21 06:29:08;;;;;;;1.52;0.30;;;12.30;66.10;;;;;;5006275;28;20067;-35
2023/12/21 06:31:35;;;;;;;2.70;0.65;;;12.30;66.10;;;;;;5006101;28;20522;-36
2023/12/21 06:34:03;;;;;;;2.38;1.20;;;12.30;66.20;;;;;;5009719;28;20054;-36
2023/12/21 06:36:30;;;;;;;3.70;0.80;;;12.30;66.20;;;;;;5007198;28;20058;-36
2023/12/21 06:38:58;;;;;;;2.85;0.40;;;12.30;66.20;;;;;;5005109;28;20525;-36
2023/12/21 06:41:25;;;;;;;1.45;0.50;;;12.30;66.10;;;;;;5004616;28;20053;-37
2023/12/21 06:43:54;;;;;;;1.70;0.40;;;12.40;66.10;;;;;;5008597;28;20046;-37
2023/12/21 06:46:21;;;;;;;0.88;0.35;;;12.40;66.00;;;;;;5010630;28;20053;-37
2023/12/21 06:48:49;;;;;;;1.42;0.28;;;12.40;65.90;;;;;;5006628;28;20062;-36
2023/12/21 06:51:16;;;;;;;0.68;0.20;;;12.50;65.90;;;;;;5005553;28;20055;-36
2023/12/21 06:53:43;;;;;;;0.17;0.10;;;12.50;65.80;;;;;;5007248;28;20058;-36
2023/12/21 06:56:11;;;;;;;0.60;0.20;;;12.50;65.60;;;;;;5010269;28;20061;-36
2023/12/21 06:58:39;;;;;;;0.47;0.10;;;12.50;65.40;;;;;;5006413;28;20398;-36
2023/12/21 07:01:08;;;;;;;0.45;0.10;;;12.50;65.30;;;;;;4998996;28;20057;-37
2023/12/21 07:03:35;;;;;;;2.22;0.15;;;12.60;65.30;;;;;;5002340;28;20061;-36
2023/12/21 07:06:03;;;;;;;0.10;0.00;;;12.60;65.20;;;;;;5006093;28;20057;-37
2023/12/21 07:08:30;;;;;;;0.30;0.20;;;12.50;65.10;;;;;;5003562;28;20064;-36
2023/12/21 07:10:57;;;;;;;0.10;0.10;;;12.60;65.10;;;;;;5003320;28;20518;-36
2023/12/21 07:13:25;;;;;;;0.28;0.13;;;12.60;65.20;;;;;;5009251;28;20050;-35
2023/12/21 07:15:52;;;;;;;2.17;0.20;;;12.60;65.20;;;;;;5003348;28;20379;-36
2023/12/21 07:18:20;;;;;;;0.40;0.10;;;12.60;65.20;;;;;;5002207;28;20050;-36
2023/12/21 07:20:48;;;;;;;0.20;0.10;;;12.60;65.30;;;;;;5000137;28;20046;-36
2023/12/21 07:23:15;;;;;;;0.20;0.20;;;12.60;65.30;;;;;;5007631;28;20049;-36
2023/12/21 07:25:42;;;;;;;1.00;0.20;;;12.60;65.50;;;;;;5012133;28;20050;-36
2023/12/21 07:28:09;;;;;;;3.03;0.10;;;12.60;65.50;;;;;;4996740;28;20486;-36
2023/12/21 07:30:36;;;;;;;0.85;0.20;;;12.60;65.60;;;;;;5004283;28;20046;-35
2023/12/21 07:33:04;;;;;;;0.80;0.10;;;12.70;65.70;;;;;;5008599;28;20053;-35
2023/12/21 07:35:33;;;;;;;0.10;0.10;;;12.60;65.70;;;;;;5004956;28;20062;-37
2023/12/21 07:38:00;;;;;;;0.88;0.10;;;12.60;65.70;;;;;;5006691;28;20064;-38
2023/12/21 07:40:28;;;;;;;0.20;0.10;;;12.70;65.80;;;;;;5013611;28;20054;-36
2023/12/21 07:42:55;;;;;;;0.63;0.17;;;12.70;65.80;;;;;;5001290;28;20068;-37
2023/12/21 07:45:22;;;;;;;0.05;0.00;;;12.70;65.80;;;;;;5003618;28;20502;-37
2023/12/21 07:47:49;;;;;;;1.85;0.20;;;12.80;65.80;;;;;;5006161;28;20056;-37
2023/12/21 07:50:17;;;;;;;1.02;0.10;;;12.80;65.80;;;;;;5000598;28;20399;-36
2023/12/21 07:52:45;;;;;;;1.40;0.20;;;12.80;65.80;;;;;;5001920;28;20498;-36
2023/12/21 07:55:13;;;;;;;0.30;0.20;;;12.80;65.80;;;;;;5004054;28;20058;-36
2023/12/21 07:57:40;;;;;;;0.17;0.17;;;12.70;65.90;;;;;;5004722;28;20064;-36
2023/12/21 08:00:09;;;;;;;0.60;0.20;;;12.70;65.90;;;;;;5004678;28;21181;-36
2023/12/21 08:02:44;;;;;;;0.35;0.13;;;12.70;65.90;;;;;;5000208;28;20061;-37
2023/12/21 08:05:11;;;;;;;0.75;0.20;;;12.80;66.00;;;;;;5006233;28;20050;-38
2023/12/21 08:07:39;;;;;;;0.75;0.30;;;12.80;65.90;;;;;;5003073;28;20054;-36
2023/12/21 08:10:08;;;;;;;0.35;0.20;;;12.70;65.80;;;;;;5002929;28;20478;-35
2023/12/21 08:12:36;;;;;;;0.38;0.10;;;12.70;65.80;;;;;;5009136;28;20065;-36
2023/12/21 08:15:04;;;;;;;0.20;0.10;;;12.70;66.00;;;;;;5006056;28;20053;-37
2023/12/21 08:17:32;;;;;;;0.63;0.30;;;12.70;66.20;;;;;;5000428;28;20046;-37
2023/12/21 08:19:59;;;;;;;0.80;0.20;;;12.60;66.40;;;;;;5000233;28;20058;-36
2023/12/21 08:22:26;;;;;;;0.38;0.20;;;12.50;66.60;;;;;;5000830;28;20058;-35
2023/12/21 08:24:56;;;;;;;1.08;0.28;;;12.50;67.10;;;;;;5005200;28;20057;-35
2023/12/21 08:27:26;;;;;;;0.45;0.10;;;12.50;67.30;;;;;;5003066;28;20062;-36
2023/12/21 08:29:53;;;;;;;1.05;0.15;;;12.50;67.40;;;;;;5002438;28;20391;-36
2023/12/21 08:32:20;;;;;;;0.30;0.30;;;12.50;67.40;;;;;;4999302;28;20056;-35
2023/12/21 08:34:48;;;;;;;1.60;0.28;;;12.50;67.40;;;;;;5009527;28;20053;-37
2023/12/21 08:37:15;;;;;;;0.57;0.40;;;12.50;67.30;;;;;;5010984;28;20483;-36
2023/12/21 08:39:42;;;;;;;0.93;0.30;;;12.40;67.20;;;;;;5003821;28;20487;-35
2023/12/21 08:42:10;;;;;;;1.30;0.20;;;12.40;67.00;;;;;;4998372;28;20049;-36
2023/12/21 08:44:39;;;;;;;1.23;0.30;;;12.40;67.10;;;;;;5002991;28;20058;-35
2023/12/21 08:47:06;;;;;;;2.45;0.30;;;12.40;66.80;;;;;;5012193;28;20061;-36
2023/12/21 08:49:33;;;;;;;0.70;0.30;;;12.40;67.00;;;;;;5007989;28;20057;-36
2023/12/21 08:52:01;;;;;;;0.10;0.10;;;12.40;66.80;;;;;;5010397;28;20053;-36
2023/12/21 08:54:28;;;;;;;1.80;0.30;;;12.40;66.40;;;;;;5012013;28;20468;-36
2023/12/21 08:56:57;;;;;;;2.20;0.22;;;12.50;66.60;;;;;;5003423;28;20046;-36
2023/12/21 08:59:26;;;;;;;1.73;0.22;;;12.50;66.30;;;;;;5005640;28;20490;-36
2023/12/21 09:01:54;;;;;;;1.17;0.20;;;12.40;65.90;;;;;;5011583;28;20046;-36
2023/12/21 09:04:22;;;;;;;3.33;0.30;;;12.40;65.70;;;;;;5009277;28;20058;-35
2023/12/21 09:06:49;;;;;;;1.50;0.30;;;12.40;65.40;;;;;;5010430;28;20058;-36
2023/12/21 09:09:16;;;;;;;1.75;0.38;;;12.40;65.50;;;;;;5006896;28;20054;-35
2023/12/21 09:11:43;;;;;;;0.85;0.30;;;12.50;65.40;;;;;;5009658;28;20173;-35
2023/12/21 09:14:11;;;;;;;0.95;0.30;;;12.50;65.40;;;;;;5009905;28;20050;-37
2023/12/21 09:16:38;;;;;;;2.10;0.50;;;12.60;65.50;;;;;;5008181;28;20058;-35
2023/12/21 09:19:08;;;;;;;1.35;0.30;;;12.70;65.40;;;;;;5011217;28;20058;-36
2023/12/21 09:21:36;;;;;;;2.83;0.55;;;12.70;65.40;;;;;;5006938;28;20053;-36
2023/12/21 09:24:03;;;;;;;0.80;0.30;;;12.70;65.60;;;;;;5004430;28;20054;-36
2023/12/21 09:26:32;;;;;;;1.25;0.35;;;12.70;65.70;;;;;;5011655;28;20049;-40
2023/12/21 09:28:59;;;;;;;1.05;0.32;;;12.70;65.80;;;;;;5007628;28;20061;-48
2023/12/21 09:31:28;;;;;;;1.08;0.50;;;12.70;66.00;;;;;;5002268;28;20509;-46
2023/12/21 09:33:55;;;;;;;2.88;0.45;;;12.70;66.20;;;;;;5001747;28;20055;-48
2023/12/21 09:36:24;;;;;;;3.95;0.50;;;12.70;66.30;;;;;;5006245;28;20050;-47
2023/12/21 09:38:52;;;;;;;3.25;0.68;;;12.80;66.40;;;;;;5003675;28;20498;-49
2023/12/21 09:41:19;;;;;;;1.45;0.57;;;12.80;66.40;;;;;;5004562;28;20054;-48
2023/12/21 09:43:48;;;;;;;2.05;0.85;;;12.80;66.50;;;;;;5005725;28;20061;-48
2023/12/21 09:46:16;;;;;;;1.23;0.40;;;12.80;66.60;;;;;;5005549;28;20068;-49
2023/12/21 09:48:45;;;;;;;1.25;0.40;;;12.80;66.60;;;;;;5005848;28;20526;-48
2023/12/21 09:51:14;;;;;;;0.45;0.30;;;12.80;66.70;;;;;;5010968;28;20418;-49
2023/12/21 09:53:44;;;;;;;2.90;0.50;;;12.70;67.60;;;;;;5004789;28;20057;-48
2023/12/21 09:56:14;;;;;;;2.20;0.50;;;12.80;67.20;;;;;;5004261;28;20367;-50
2023/12/21 09:58:44;;;;;;;1.55;0.40;;;12.70;67.30;;;;;;4996357;28;20053;-45
2023/12/21 10:01:11;;;;;;;3.72;0.60;;;12.70;67.40;;;;;;5006850;28;20072;-51
2023/12/21 10:03:38;;;;;;;3.63;0.43;;;12.70;67.50;;;;;;5009152;28;20053;-51
2023/12/21 10:06:06;;;;;;;1.48;0.40;;;12.70;67.80;;;;;;5003239;28;20517;-49
2023/12/21 10:08:34;;;;;;;1.08;0.50;;;12.60;67.90;;;;;;5006243;28;20056;-50
2023/12/21 10:11:06;;;;;;;1.38;0.50;;;12.60;68.10;;;;;;5004322;28;20046;-45
2023/12/21 10:13:34;;;;;;;0.98;0.20;;;12.70;68.20;;;;;;5003045;28;20054;-51
2023/12/21 10:16:03;;;;;;;0.77;0.20;;;12.60;68.20;;;;;;5005590;28;20061;-39
2023/12/21 10:18:30;;;;;;;2.65;0.60;;;12.60;68.40;;;;;;5002256;28;20058;-50
2023/12/21 10:20:58;;;;;;;0.98;0.35;;;12.60;68.40;;;;;;4999598;28;20058;-50
2023/12/21 10:23:26;;;;;;;1.42;0.30;;;12.70;68.40;;;;;;5006836;28;20145;-50
2023/12/21 10:25:54;;;;;;;1.23;0.20;;;12.60;68.50;;;;;;5009442;28;20505;-51
2023/12/21 10:28:24;;;;;;;2.63;0.32;;;12.60;68.70;;;;;;5003022;28;20057;-49
2023/12/21 10:30:55;;;;;;;1.17;0.30;;;12.50;68.80;;;;;;5001259;28;20423;-47
2023/12/21 10:33:22;;;;;;;2.05;0.47;;;12.60;69.00;;;;;;5001811;28;20053;-50
2023/12/21 10:35:53;;;;;;;0.70;0.25;;;12.60;69.10;;;;;;5004099;28;20561;-36
2023/12/21 10:38:21;;;;;;;1.13;0.40;;;12.60;69.00;;;;;;5003210;28;20457;-35
2023/12/21 10:40:49;;;;;;;0.38;0.17;;;12.60;69.00;;;;;;5003462;28;20049;-37
2023/12/21 10:43:17;;;;;;;0.45;0.20;;;12.60;69.30;;;;;;5007260;28;20061;-36
2023/12/21 10:45:47;;;;;;;1.95;0.30;;;12.50;69.50;;;;;;5004644;28;20058;-36
2023/12/21 10:48:19;;;;;;;0.20;0.00;;;12.50;69.70;;;;;;5003194;28;20520;-36
2023/12/21 10:50:49;;;;;;;0.30;0.20;;;12.50;69.90;;;;;;5006376;28;20069;-36
2023/12/21 10:53:17;;;;;;;2.67;0.30;;;12.60;69.90;;;;;;5010058;28;20050;-37
2023/12/21 10:55:46;;;;;;;4.13;0.30;;;12.50;69.90;;;;;;5002613;28;20061;-37
2023/12/21 10:58:13;;;;;;;1.00;0.20;;;12.60;69.90;;;;;;5007839;28;20063;-35
2023/12/21 11:00:43;;;;;;;1.65;0.17;;;12.60;70.00;;;;;;5008358;28;20072;-36
2023/12/21 11:03:16;;;;;;;0.93;0.20;;;12.60;70.00;;;;;;5007722;28;20061;-37
2023/12/21 11:05:45;;;;;;;0.38;0.20;;;12.70;70.00;;;;;;5008517;28;20605;-36
2023/12/21 11:08:13;;;;;;;0.68;0.10;;;12.70;70.70;;;;;;5008636;28;20054;-38
2023/12/21 11:10:41;;;;;;;0.85;0.10;;;12.60;70.30;;;;;;5004153;28;20068;-35
2023/12/21 11:13:09;;;;;;;0.80;0.17;;;12.60;70.50;;;;;;4999234;28;20053;-35
2023/12/21 11:15:37;;;;;;;0.70;0.10;;;12.50;70.70;;;;;;5005109;28;20051;-36
2023/12/21 11:18:09;;;;;;;0.43;0.20;;;12.70;71.00;;;;;;5010584;28;20398;-37
2023/12/21 11:20:42;;;;;;;0.20;0.10;;;12.60;70.90;;;;;;5002851;28;20054;-37
2023/12/21 11:23:10;;;;;;;0.93;0.10;;;12.60;71.10;;;;;;5007374;28;20122;-37
2023/12/21 11:25:38;;;;;;;0.45;0.10;;;12.70;71.30;;;;;;5001283;28;20401;-37
2023/12/21 11:28:06;;;;;;;0.82;0.10;;;12.60;71.20;;;;;;5011649;28;20413;-37
2023/12/21 11:30:33;;;;;;;0.65;0.10;;;12.60;71.50;;;;;;5005955;28;20053;-36
2023/12/21 11:33:08;;;;;;;0.08;0.00;;;12.70;71.60;;;;;;4999064;28;20082;-37
2023/12/21 11:35:37;;;;;;;0.77;0.20;;;12.80;71.70;;;;;;5005021;28;20486;-37
2023/12/21 11:38:06;;;;;;;1.65;0.10;;;12.80;71.60;;;;;;5003646;28;20065;-37
2023/12/21 11:40:35;;;;;;;1.65;0.20;;;12.80;71.40;;;;;;5005426;28;20050;-37
2023/12/21 11:43:03;;;;;;;1.13;0.20;;;12.90;71.50;;;;;;4999992;28;20050;-38
2023/12/21 11:45:31;;;;;;;0.63;0.10;;;12.80;71.40;;;;;;5003039;28;20644;-37
2023/12/21 11:48:00;;;;;;;2.20;0.13;;;12.80;71.60;;;;;;5002939;28;20057;-36
2023/12/21 11:50:33;;;;;;;0.77;0.30;;;12.80;71.60;;;;;;4993419;28;20407;-37
2023/12/21 11:53:10;;;;;;;0.17;0.17;;;12.90;71.80;;;;;;5008135;28;20064;-36
2023/12/21 11:55:39;;;;;;;1.00;0.22;;;12.80;72.10;;;;;;4991927;28;20078;-37
2023/12/21 11:58:18;;;;;;;1.13;0.28;;;12.80;72.50;;;;;;4998073;28;20065;-36
2023/12/21 12:00:49;;;;;;;1.83;0.30;;;12.90;72.60;;;;;;5001484;28;20054;-37
2023/12/21 12:03:17;;;;;;;0.70;0.20;;;12.90;72.50;;;;;;4999824;28;20057;-37
2023/12/21 12:06:06;;;;;;;3.35;1.08;;;12.90;72.00;;;;;;5081397;27;20574;-40
2023/12/21 12:08:34;;;;;;;1.83;0.47;;;13.00;72.60;;;;;;5057084;28;20056;-40
2023/12/21 12:11:03;;;;;;;1.98;0.80;;;13.10;72.50;;;;;;5052378;28;20064;-38
2023/12/21 12:13:31;;;;;;;1.80;0.50;;;13.10;72.30;;;;;;5065426;28;20056;-38
2023/12/21 12:15:58;;;;;;;2.63;0.47;;;13.20;72.10;;;;;;5060126;28;20044;-37
2023/12/21 12:18:25;;;;;;;2.80;0.70;;;13.20;72.20;;;;;;5062547;28;20064;-37
2023/12/21 12:20:53;;;;;;;2.53;0.90;;;13.20;72.10;;;;;;5058731;28;20056;-38
2023/12/21 12:23:22;;;;;;;1.73;0.60;;;13.20;71.90;;;;;;5060738;28;20044;-37
2023/12/21 12:25:49;;;;;;;2.05;0.75;;;13.30;71.80;;;;;;5066121;28;20045;-41
2023/12/21 12:28:17;;;;;;;5.63;1.00;;;13.30;71.60;;;;;;5055009;28;20075;-38
2023/12/21 12:30:45;;;;;;;4.88;1.15;;;13.30;71.50;;;;;;5064531;28;20535;-38
2023/12/21 12:33:13;;;;;;;3.38;0.90;;;13.30;71.20;;;;;;5058597;28;20048;-39
2023/12/21 12:35:42;;;;;;;3.58;0.93;;;13.30;70.90;;;;;;5065053;28;20481;-39
2023/12/21 12:38:09;;;;;;;9.73;0.90;;;13.40;70.90;;;;;;5060269;28;20420;-38
2023/12/21 12:40:38;;;;;;;5.55;0.98;;;13.40;70.50;;;;;;5059826;28;20060;-39
2023/12/21 12:43:07;;;;;;;4.32;1.00;;;13.40;70.20;;;;;;5065117;28;20053;-39
2023/12/21 12:45:34;;;;;;;4.65;0.80;;;13.50;70.10;;;;;;5058970;28;20051;-40
2023/12/21 12:48:03;;;;;;;3.65;1.15;;;13.50;70.00;;;;;;5063171;28;20520;-40
2023/12/21 12:50:32;;;;;;;3.97;0.90;;;13.60;69.90;;;;;;5063339;28;20060;-39